KPQL

Details ICAO KPQL
Name TRENT LOTT INTL
Region United States
Timezone America/Chicago (UTC-6.0)
Plans Departing 4
Arriving 4
Stats Elevation 17 ft / 5 m (AMSL)
Location 30.462782° -88.529228°
Runways 1
Magnetic Variation 1.919° W
Sunrise 2017-12-13 12:43:51 UTC / 2017-12-13 06:43:51 Local
Sunset 2017-12-13 22:55:51 UTC / 2017-12-13 16:55:51 Local
Advertisement - Login to hide

Runways

ID Width Length Bearing (true) Bearing (mag) Surface Threshold Offset Overrun Length
17 100 ft / 30 m 6,519 ft / 1,987 m 166.12° 168.04° Asphalt 0 ft / 0 m 0 ft / 0 m
35 100 ft / 30 m 6,519 ft / 1,987 m 346.12° 348.04° Asphalt 0 ft / 0 m 0 ft / 0 m

Approach Navaids

Runway Type Ident Frequency Range Bearing (true) Bearing (mag) Slope Elevation
17 Localiser IPQL 110.10 MHz 18 nm / 33 km 166.12° 168.04° - 17 ft / 5 m (AMSL)
17 Glidescope IPQL 110.10 MHz 10 nm / 19 km 166.12° 168.04° 3.00° 17 ft / 5 m (AMSL)

Map

Weather


0- 5 10 15 20 25 30 35+ Temperature / ° C

Clouds and Precipitation
Forecast for 2017-12-13 06:00 UTC. Updated 26 minutes ago

Ground ~20,000 ft ~40,000 ft Winds

METAR

KPQL 130453Z AUTO 34006KT 10SM CLR 07/M01 A3016 RMK AO2 SLP214 T00671011

TAF

Not found

Frequencies

Recorded 135.17 MHz ATIS
Unicom 122.80 MHz UNICOM
Ground 121.72 MHz GND
Approach 121.00 MHz MOBILE APP/DEP
Unicom 118.57 MHz CTAF
Clearance 121.72 MHz CLD
Tower 118.57 MHz TWR
Warning: Do not use this data for real-world aviation or navigation. No guarantee of current accuracy is given.